createdAt,value
2019-01-15T05:03:50.821Z,99.993896
2019-01-15T05:07:18.685Z,99.993896
2019-01-15T05:10:47.643Z,99.993896
2019-01-15T05:14:15.539Z,99.993896
2019-01-15T05:17:43.414Z,99.993896
2019-01-15T05:21:11.296Z,99.993896
2019-01-15T05:24:39.191Z,99.993896
2019-01-15T05:28:07.138Z,99.993896
2019-01-15T05:31:36.067Z,99.993896
2019-01-15T05:35:03.959Z,99.993896
2019-01-15T05:38:32.836Z,99.993896
2019-01-15T05:42:00.726Z,99.993896
2019-01-15T05:45:29.302Z,99.993896
2019-01-15T05:48:58.343Z,99.993896
2019-01-15T05:52:27.229Z,99.993896
2019-01-15T05:55:56.082Z,99.993896
2019-01-15T05:59:23.974Z,99.993896
2019-01-15T06:02:51.854Z,99.993896
2019-01-15T06:06:19.764Z,99.993896
2019-01-15T06:09:47.646Z,99.993896
2019-01-15T06:13:15.782Z,99.993896
2019-01-15T06:16:43.661Z,99.993896
2019-01-15T06:20:11.557Z,99.993896
2019-01-15T06:23:39.456Z,99.993896
2019-01-15T06:27:07.329Z,99.993896
2019-01-15T06:30:35.222Z,99.993896
2019-01-15T06:34:03.270Z,99.993896
2019-01-15T06:37:31.104Z,99.993896
2019-01-15T06:40:59.001Z,99.993896
2019-01-15T06:44:26.935Z,99.993896
2019-01-15T06:47:54.847Z,99.993896
2019-01-15T06:51:22.712Z,99.993896
2019-01-15T06:54:50.611Z,99.993896
2019-01-15T06:58:18.575Z,99.993896
2019-01-15T07:01:46.447Z,99.993896
2019-01-15T07:05:15.329Z,99.993896
2019-01-15T07:08:44.211Z,99.993896
2019-01-15T07:12:12.089Z,99.993896
2019-01-15T07:15:39.976Z,99.993896
2019-01-15T07:19:07.951Z,99.993896
2019-01-15T07:22:35.829Z,99.993896
2019-01-15T07:26:04.714Z,99.993896
2019-01-15T07:29:32.613Z,99.993896
2019-01-15T07:33:00.483Z,99.993896
2019-01-15T07:36:28.371Z,99.993896
2019-01-15T07:39:56.336Z,99.993896
2019-01-15T07:43:24.215Z,99.993896
2019-01-15T07:46:59.138Z,99.993896
2019-01-15T07:50:27.022Z,99.993896
2019-01-15T07:53:54.899Z,99.993896
2019-01-15T07:57:22.797Z,99.920654
2019-01-15T08:00:50.774Z,99.560547
2019-01-15T08:04:18.652Z,99.249268
2019-01-15T08:07:46.541Z,99.090576
2019-01-15T08:11:14.438Z,98.986816
2019-01-15T08:14:42.307Z,98.779297
2019-01-15T08:18:10.196Z,98.522949
2019-01-15T08:21:38.182Z,98.21167
2019-01-15T08:25:06.061Z,98.21167
2019-01-15T08:28:33.957Z,98.21167
2019-01-15T08:32:01.843Z,98.10791
2019-01-15T08:35:29.748Z,98.00415
2019-01-15T08:38:57.625Z,97.753906
2019-01-15T08:42:25.644Z,97.753906
2019-01-15T08:45:55.298Z,97.546387
2019-01-15T08:49:22.611Z,97.546387
2019-01-15T08:52:50.512Z,97.442627
2019-01-15T08:56:18.611Z,96.923828
2019-01-15T08:59:46.489Z,96.923828
2019-01-15T09:03:15.487Z,97.027588
2019-01-15T09:06:43.358Z,96.508789
2019-01-15T09:10:13.250Z,95.947266
2019-01-15T09:13:41.155Z,96.362305
2019-01-15T09:17:11.041Z,96.569824
2019-01-15T09:20:38.920Z,96.777344
2019-01-15T09:24:07.897Z,97.088623
2019-01-15T09:27:35.799Z,97.393799
2019-01-15T09:31:03.682Z,97.808838
2019-01-15T09:34:31.576Z,98.016357
2019-01-15T09:37:59.464Z,98.431396
2019-01-15T09:41:27.341Z,98.638916
2019-01-15T09:44:55.316Z,98.950195
2019-01-15T09:48:24.196Z,98.907471
2019-01-15T09:51:52.075Z,98.907471
2019-01-15T09:55:19.970Z,98.492432
2019-01-15T09:58:47.865Z,98.388672
2019-01-15T10:02:15.745Z,98.803711
2019-01-15T10:05:44.726Z,99.11499
2019-01-15T10:09:12.620Z,99.32251
2019-01-15T10:12:40.491Z,99.627686
2019-01-15T10:16:08.374Z,99.835205
2019-01-15T10:19:38.259Z,99.835205
2019-01-15T10:23:07.129Z,99.938965
2019-01-15T10:26:35.105Z,99.993896
2019-01-15T10:30:03.014Z,99.993896
2019-01-15T10:33:30.884Z,99.993896
2019-01-15T10:36:58.787Z,99.993896
2019-01-15T10:40:26.682Z,99.993896
2019-01-15T10:43:55.540Z,99.993896
2019-01-15T10:47:24.569Z,99.993896
2019-01-15T10:50:52.389Z,99.993896
2019-01-15T10:54:20.260Z,99.993896
2019-01-15T10:57:49.132Z,99.993896
2019-01-15T11:01:17.021Z,99.993896
2019-01-15T11:04:44.893Z,99.993896
2019-01-15T11:08:12.796Z,99.993896
2019-01-15T11:11:40.787Z,99.993896
2019-01-15T11:15:08.648Z,99.993896
2019-01-15T11:18:36.539Z,99.993896
2019-01-15T11:22:04.429Z,99.993896
2019-01-15T11:25:32.299Z,99.993896
2019-01-15T11:29:00.187Z,99.993896
2019-01-15T11:32:28.191Z,99.993896
2019-01-15T11:35:56.066Z,99.993896
2019-01-15T11:39:23.957Z,99.847412
2019-01-15T11:42:51.840Z,99.847412
2019-01-15T11:46:19.719Z,99.951172
2019-01-15T11:49:47.609Z,99.951172
2019-01-15T11:53:15.582Z,99.743652
2019-01-15T11:56:43.462Z,99.639893
2019-01-15T12:00:11.352Z,99.743652
2019-01-15T12:03:39.304Z,99.743652
2019-01-15T12:07:07.121Z,99.536133
2019-01-15T12:10:35.016Z,99.182129
2019-01-15T12:14:02.908Z,99.285889
2019-01-15T12:17:30.913Z,99.182129
2019-01-15T12:20:58.759Z,99.182129
2019-01-15T12:24:26.646Z,99.078369
2019-01-15T12:27:54.521Z,98.828125
2019-01-15T12:31:22.404Z,98.828125
2019-01-15T12:34:50.308Z,98.931885
2019-01-15T12:38:18.263Z,99.035645
2019-01-15T12:41:46.156Z,99.34082
2019-01-15T12:45:18.290Z,99.44458
2019-01-15T12:48:44.901Z,99.54834
2019-01-15T12:52:12.796Z,99.6521
2019-01-15T12:55:40.688Z,99.755859
2019-01-15T12:59:08.647Z,99.963379
2019-01-15T13:02:36.545Z,99.993896
2019-01-15T13:06:04.436Z,99.993896
2019-01-15T13:09:32.309Z,99.993896
2019-01-15T13:13:00.206Z,99.993896
2019-01-15T13:16:28.091Z,99.993896
2019-01-15T13:19:56.061Z,99.993896
2019-01-15T13:23:23.952Z,99.993896
2019-01-15T13:26:51.844Z,99.993896
2019-01-15T13:30:19.718Z,99.993896
2019-01-15T13:33:47.599Z,99.993896
2019-01-15T13:37:15.492Z,99.993896
2019-01-15T13:40:43.367Z,99.993896
2019-01-15T13:44:11.325Z,99.993896
2019-01-15T13:47:39.213Z,99.993896
2019-01-15T13:51:07.092Z,99.993896
2019-01-15T13:54:34.988Z,99.993896
2019-01-15T13:58:02.875Z,99.993896
2019-01-15T14:01:30.748Z,99.993896
2019-01-15T14:04:59.721Z,99.993896
2019-01-15T14:08:27.609Z,99.993896
2019-01-15T14:11:55.485Z,99.993896
2019-01-15T14:15:23.384Z,99.993896
2019-01-15T14:18:51.291Z,99.993896
2019-01-15T14:22:19.169Z,99.993896
2019-01-15T14:25:47.141Z,99.993896
2019-01-15T14:29:15.046Z,99.993896
2019-01-15T14:32:42.917Z,99.993896
2019-01-15T14:36:10.804Z,99.993896
2019-01-15T14:39:38.692Z,99.993896
2019-01-15T14:43:06.566Z,99.993896
2019-01-15T14:46:35.347Z,99.993896
2019-01-15T14:50:03.252Z,99.993896
2019-01-15T14:53:31.865Z,99.993896
2019-01-15T14:56:59.763Z,99.993896
2019-01-15T15:00:27.651Z,99.993896
2019-01-15T15:03:55.889Z,99.993896
2019-01-15T15:07:23.766Z,99.993896
2019-01-15T15:10:51.726Z,99.993896
2019-01-15T15:14:19.874Z,99.993896
2019-01-15T15:17:47.755Z,99.993896
2019-01-15T15:21:15.643Z,99.993896
2019-01-15T15:24:43.544Z,99.993896
2019-01-15T15:28:11.410Z,99.993896
2019-01-15T15:31:39.358Z,99.993896
2019-01-15T15:35:07.253Z,99.993896
2019-01-15T15:38:35.142Z,99.993896
2019-01-15T15:42:04.029Z,99.993896
2019-01-15T15:45:31.961Z,99.993896
2019-01-15T15:48:59.849Z,99.993896
2019-01-15T15:52:28.705Z,99.993896
2019-01-15T15:55:56.666Z,99.993896
2019-01-15T15:59:24.564Z,99.993896
2019-01-15T16:02:52.665Z,99.993896
2019-01-15T16:06:21.549Z,99.993896
2019-01-15T16:09:49.418Z,99.993896
2019-01-15T16:13:17.329Z,99.993896
2019-01-15T16:16:45.220Z,99.993896
2019-01-15T16:20:14.095Z,99.993896
2019-01-15T16:23:41.972Z,99.993896
2019-01-15T16:27:09.867Z,99.993896
2019-01-15T16:30:37.765Z,99.993896
2019-01-15T16:34:05.645Z,99.993896
2019-01-15T16:37:34.522Z,99.993896
2019-01-15T16:41:02.414Z,99.993896
2019-01-15T16:44:30.290Z,99.993896
2019-01-15T16:47:58.186Z,99.993896
2019-01-15T16:51:26.093Z,99.993896
2019-01-15T16:54:54.001Z,99.993896
2019-01-15T16:58:21.896Z,99.993896
2019-01-15T17:01:49.829Z,99.993896
2019-01-15T17:05:17.849Z,99.993896
2019-01-15T17:08:45.742Z,99.993896
2019-01-15T17:12:14.331Z,99.993896
2019-01-15T17:15:42.408Z,99.993896
2019-01-15T17:19:10.288Z,99.993896
2019-01-15T17:22:38.177Z,99.993896
2019-01-15T17:26:06.171Z,99.993896
2019-01-15T17:29:34.048Z,99.993896
2019-01-15T17:33:01.943Z,99.993896
2019-01-15T17:36:30.844Z,99.993896
2019-01-15T17:39:58.715Z,99.993896
2019-01-15T17:43:26.611Z,99.993896
2019-01-15T17:46:54.535Z,99.993896
2019-01-15T17:50:22.421Z,99.993896
2019-01-15T17:53:50.311Z,99.993896
2019-01-15T17:57:18.290Z,99.993896
2019-01-15T18:00:46.176Z,99.993896
2019-01-15T18:04:15.323Z,99.993896
2019-01-15T18:07:44.904Z,99.993896
2019-01-15T18:11:12.775Z,99.993896
2019-01-15T18:14:40.664Z,99.993896
2019-01-15T18:18:09.544Z,99.993896
2019-01-15T18:21:37.417Z,99.993896
2019-01-15T18:25:05.327Z,99.993896
2019-01-15T18:28:33.210Z,99.993896
2019-01-15T18:32:02.112Z,99.926758
2019-01-15T18:35:31.001Z,99.719238
2019-01-15T18:38:58.888Z,99.664307
2019-01-15T18:42:26.771Z,99.719238
2019-01-15T18:45:54.673Z,99.414062
2019-01-15T18:49:22.570Z,99.456787
2019-01-15T18:52:50.440Z,99.456787
2019-01-15T18:56:18.330Z,99.151611
2019-01-15T18:59:47.303Z,98.944092
2019-01-15T19:03:16.173Z,98.840332
2019-01-15T19:06:44.065Z,98.736572
2019-01-15T19:10:11.956Z,98.632812
2019-01-15T19:13:39.827Z,98.382568
2019-01-15T19:17:08.713Z,98.529053
2019-01-15T19:20:36.604Z,98.736572
2019-01-15T19:24:04.474Z,98.736572
2019-01-15T19:27:32.366Z,98.840332
2019-01-15T19:31:00.253Z,98.529053
2019-01-15T19:34:28.130Z,98.529053
2019-01-15T19:37:56.024Z,98.529053
2019-01-15T19:41:23.914Z,98.632812
2019-01-15T19:44:51.784Z,98.529053
2019-01-15T19:48:19.673Z,98.529053
2019-01-15T19:51:48.560Z,98.529053
2019-01-15T19:55:16.454Z,98.321533
2019-01-15T19:58:44.346Z,98.321533
2019-01-15T20:02:12.232Z,98.010254
2019-01-15T20:05:40.127Z,98.114014
2019-01-15T20:09:08.994Z,98.114014
2019-01-15T20:12:36.897Z,98.217773
2019-01-15T20:16:04.784Z,98.217773
2019-01-15T20:19:32.661Z,98.425293
2019-01-15T20:23:00.548Z,98.529053
2019-01-15T20:26:28.434Z,98.632812
2019-01-15T20:29:56.307Z,98.736572
2019-01-15T20:33:24.198Z,98.840332
2019-01-15T20:36:52.117Z,98.791504
2019-01-15T20:40:19.981Z,98.791504
2019-01-15T20:43:47.883Z,98.791504
2019-01-15T20:47:15.763Z,98.791504
2019-01-15T20:50:46.608Z,98.895264
2019-01-15T20:54:14.507Z,98.999023
2019-01-15T20:57:42.391Z,99.102783
2019-01-15T21:01:10.293Z,99.206543
2019-01-15T21:04:38.200Z,99.102783
2019-01-15T21:08:06.108Z,99.102783
2019-01-15T21:11:33.976Z,99.310303
2019-01-15T21:15:01.867Z,99.310303
2019-01-15T21:18:29.762Z,99.414062
2019-01-15T21:21:57.630Z,99.517822
2019-01-15T21:25:25.527Z,99.414062
2019-01-15T21:28:53.410Z,99.517822
2019-01-15T21:32:21.284Z,99.719238
2019-01-15T21:35:50.163Z,99.993896
2019-01-15T21:39:18.056Z,99.993896
2019-01-15T21:42:45.934Z,99.993896
2019-01-15T21:46:14.821Z,99.993896
2019-01-15T21:49:42.712Z,99.993896
2019-01-15T21:53:11.575Z,99.993896
2019-01-15T21:56:39.480Z,99.993896
2019-01-15T22:00:07.365Z,99.993896
2019-01-15T22:03:35.240Z,99.993896
2019-01-15T22:07:04.532Z,99.993896
2019-01-15T22:10:32.000Z,99.993896
2019-01-15T22:13:59.884Z,99.993896
2019-01-15T22:17:27.767Z,99.993896
2019-01-15T22:20:55.666Z,99.993896
2019-01-15T22:24:24.530Z,99.993896
2019-01-15T22:27:52.417Z,99.993896
2019-01-15T22:31:20.311Z,99.993896
2019-01-15T22:34:48.184Z,99.993896
2019-01-15T22:38:16.076Z,99.993896
2019-01-15T22:41:43.971Z,99.993896
2019-01-15T22:45:11.859Z,99.993896
2019-01-15T22:48:39.738Z,99.993896
2019-01-15T22:52:07.618Z,99.993896
2019-01-15T22:55:35.505Z,99.993896
2019-01-15T22:59:03.539Z,99.993896
